ハバナ の空港の天気 - METARとTAF

ホセ・マルティ国際空港 ( MUHA / HAV ) - キューバ ハバナ
飛行場実況気象(Metar)
観測時間09/26 15:55 CDT (09/26 19:55 UTC)
風向・風速東南東 2m/s
視程8000m
天気現象弱い雨
全天の4割程度の雲 雲底高度 760m
全天の8割程度の雲 雲底高度 2130m
気温24℃
湿度100%
気圧1015hPa
METARMUHA 261955Z 11004KT 070V150 8000 -RA SCT025TCU BKN070 24/24 Q1015
過去の天気等 Google飛行場航空写真 Wunderground天気予報

過去48時間のMETAR

飛行場予報(TAF)
発表時間: 9/26 13:00 CDT (9/26 17:00 UTC)
予報対象時間: 26日14時 CDT ~ 27日14時 CDT
風向・風速南 4m/s
視程9000m
全天の8割程度の雲 雲底高度 910m
26日17時 CDT ~ 26日23時 CDT に一時的に
風向・風速不定 5m/s
視程3000m
天気現象雷雨
少しの積乱雲 雲底高度 610m
27日0時 CDT ~ 27日2時 CDT に徐々に
風向・風速不定 2m/s
少しの雲 雲底高度 910m
27日10時 CDT ~ 27日12時 CDT に徐々に
風向・風速東 3m/s
MUHA 261700Z 2618/2718 19008KT 9000 BKN030
TEMPO 2621/2703 VRB10KT 3000 TSRA FEW020CB
BECMG 2704/2706 VRB03KT FEW030
BECMG 2714/2716 08006KT